createdAt,value
2018-12-05T19:08:57.115Z,8.30
2018-12-05T19:11:25.413Z,8.40
2018-12-05T19:14:11.457Z,8.40
2018-12-05T19:16:39.768Z,8.40
2018-12-05T19:19:08.044Z,8.50
2018-12-05T19:21:36.363Z,8.50
2018-12-05T19:24:04.653Z,8.50
2018-12-05T19:26:33.018Z,8.50
2018-12-05T19:29:01.352Z,8.60
2018-12-05T19:31:29.646Z,8.50
2018-12-05T19:33:57.927Z,8.50
2018-12-05T19:36:26.248Z,8.50
2018-12-05T19:38:54.667Z,8.50
2018-12-05T19:41:24.299Z,8.50
2018-12-05T19:43:53.346Z,8.50
2018-12-05T19:46:21.625Z,8.60
2018-12-05T19:48:49.919Z,8.60
2018-12-05T19:51:18.219Z,8.60
2018-12-05T19:53:46.511Z,8.60
2018-12-05T19:56:14.801Z,8.60
2018-12-05T19:58:43.202Z,8.70
2018-12-05T20:01:12.338Z,8.70
2018-12-05T20:03:39.963Z,8.60
2018-12-05T20:06:08.393Z,8.70
2018-12-05T20:08:36.875Z,8.70
2018-12-05T20:11:05.159Z,8.70
2018-12-05T20:13:33.474Z,8.70
2018-12-05T20:16:01.761Z,8.70
2018-12-05T20:18:30.077Z,8.80
2018-12-05T20:20:58.759Z,8.70
2018-12-05T20:23:27.052Z,8.80
2018-12-05T20:25:55.332Z,8.70
2018-12-05T20:28:23.812Z,8.70
2018-12-05T20:30:52.169Z,8.70
2018-12-05T20:33:20.461Z,8.80
2018-12-05T20:35:48.770Z,8.80
2018-12-05T20:38:17.064Z,8.80
2018-12-05T20:40:45.331Z,8.80
2018-12-05T20:43:13.657Z,8.80
2018-12-05T20:45:41.936Z,8.80
2018-12-05T20:48:10.221Z,8.90
2018-12-05T20:50:38.523Z,8.90
2018-12-05T20:53:07.100Z,8.90
2018-12-05T20:55:35.376Z,8.90
2018-12-05T20:58:03.939Z,9.00
2018-12-05T21:00:32.236Z,9.00
2018-12-05T21:03:00.521Z,9.00
2018-12-05T21:05:29.101Z,9.10
2018-12-05T21:07:57.403Z,9.00
2018-12-05T21:10:25.761Z,9.00
2018-12-05T21:12:54.364Z,9.10
2018-12-05T21:15:22.659Z,9.10
2018-12-05T21:17:50.956Z,9.10
2018-12-05T21:20:19.272Z,9.10
2018-12-05T21:22:47.566Z,9.10
2018-12-05T21:25:16.097Z,9.20
2018-12-05T21:27:44.474Z,9.10
2018-12-05T21:30:12.742Z,9.10
2018-12-05T21:32:41.041Z,9.10
2018-12-05T21:35:09.390Z,9.10
2018-12-05T21:37:37.680Z,9.10
2018-12-05T21:40:06.082Z,9.20
2018-12-05T21:42:34.391Z,9.20
2018-12-05T21:45:02.688Z,9.20
2018-12-05T21:47:30.982Z,9.10
2018-12-05T21:49:59.291Z,9.20
2018-12-05T21:52:27.824Z,9.20
2018-12-05T21:54:56.113Z,9.20
2018-12-05T21:57:25.131Z,9.20
2018-12-05T21:59:56.376Z,9.20
2018-12-05T22:02:24.897Z,9.20
2018-12-05T22:04:53.197Z,9.20
2018-12-05T22:07:21.533Z,9.20
2018-12-05T22:09:49.823Z,9.20
2018-12-05T22:12:18.124Z,9.20
2018-12-05T22:14:46.421Z,9.20
2018-12-05T22:17:14.703Z,9.20
2018-12-05T22:19:43.080Z,9.20
2018-12-05T22:22:11.364Z,9.20
2018-12-05T22:24:39.650Z,9.20
2018-12-05T22:27:07.981Z,9.20
2018-12-05T22:29:36.258Z,9.20
2018-12-05T22:32:06.864Z,9.20
2018-12-05T22:34:35.418Z,9.20
2018-12-05T22:37:03.716Z,9.20
2018-12-05T22:39:32.012Z,9.20
2018-12-05T22:42:00.322Z,9.20
2018-12-05T22:44:30.715Z,9.30
2018-12-05T22:46:59.001Z,9.20
2018-12-05T22:49:27.553Z,9.20
2018-12-05T22:51:55.827Z,9.20
2018-12-05T22:54:24.121Z,9.20
2018-12-05T22:57:10.052Z,9.30
2018-12-05T22:59:38.346Z,9.20
2018-12-05T23:02:06.706Z,9.30
2018-12-05T23:04:35.283Z,9.30
2018-12-05T23:07:06.247Z,9.30
2018-12-05T23:09:34.638Z,9.30
2018-12-05T23:12:02.948Z,9.30
2018-12-05T23:14:31.240Z,9.30
2018-12-05T23:16:59.527Z,9.30
2018-12-05T23:19:27.831Z,9.30
2018-12-05T23:21:56.368Z,9.30
2018-12-05T23:24:24.667Z,9.30
2018-12-05T23:26:54.839Z,9.30
2018-12-05T23:29:21.496Z,9.30
2018-12-05T23:31:49.786Z,9.30
2018-12-05T23:34:18.097Z,9.30
2018-12-05T23:36:46.378Z,9.30
2018-12-05T23:39:14.655Z,9.30
2018-12-05T23:41:43.219Z,9.30
2018-12-05T23:44:11.517Z,9.30
2018-12-05T23:46:42.068Z,9.30
2018-12-05T23:49:10.364Z,9.30
2018-12-05T23:51:38.644Z,9.30
2018-12-05T23:54:06.920Z,9.20
2018-12-05T23:56:35.487Z,9.30
2018-12-05T23:59:03.776Z,9.20
